sensor_id;sensor_type;location;lat;lon;timestamp;P1;durP1;ratioP1;P2;durP2;ratioP2
62457;SDS011;48509;52.122;5.250;2023-09-07T00:01:05;7.6;;;6.9;;
62457;SDS011;48509;52.122;5.250;2023-09-07T00:04:19;7.7;;;6.4;;
62457;SDS011;48509;52.122;5.250;2023-09-07T00:05:55;8.6;;;6.4;;
62457;SDS011;48509;52.122;5.250;2023-09-07T00:07:31;9.81;;;6.6;;
62457;SDS011;48509;52.122;5.250;2023-09-07T00:09:07;7.6;;;6.2;;
62457;SDS011;48509;52.122;5.250;2023-09-07T00:12:19;9.0;;;6.6;;
62457;SDS011;48509;52.122;5.250;2023-09-07T00:13:55;8.4;;;6.7;;
62457;SDS011;48509;52.122;5.250;2023-09-07T00:15:35;6.9;;;6.2;;
62457;SDS011;48509;52.122;5.250;2023-09-07T00:18:48;7.0;;;6.2;;
62457;SDS011;48509;52.122;5.250;2023-09-07T00:20:26;8.81;;;6.1;;
62457;SDS011;48509;52.122;5.250;2023-09-07T00:22:02;7.1;;;6.2;;
62457;SDS011;48509;52.122;5.250;2023-09-07T00:25:16;6.5;;;5.8;;
62457;SDS011;48509;52.122;5.250;2023-09-07T00:26:52;8.4;;;6.5;;
62457;SDS011;48509;52.122;5.250;2023-09-07T00:28:28;7.3;;;6.6;;
62457;SDS011;48509;52.122;5.250;2023-09-07T00:30:05;10.8;;;6.9;;
62457;SDS011;48509;52.122;5.250;2023-09-07T00:33:17;7.9;;;6.3;;
62457;SDS011;48509;52.122;5.250;2023-09-07T00:34:54;6.9;;;6.3;;
62457;SDS011;48509;52.122;5.250;2023-09-07T00:36:31;7.2;;;6.4;;
62457;SDS011;48509;52.122;5.250;2023-09-07T00:39:43;7.9;;;6.9;;
62457;SDS011;48509;52.122;5.250;2023-09-07T00:41:19;7.5;;;6.7;;
62457;SDS011;48509;52.122;5.250;2023-09-07T00:42:54;7.1;;;6.4;;
62457;SDS011;48509;52.122;5.250;2023-09-07T00:46:07;7.1;;;6.4;;
62457;SDS011;48509;52.122;5.250;2023-09-07T00:47:43;8.2;;;6.7;;
62457;SDS011;48509;52.122;5.250;2023-09-07T00:49:20;7.2;;;6.4;;
62457;SDS011;48509;52.122;5.250;2023-09-07T00:50:58;9.21;;;7.0;;
62457;SDS011;48509;52.122;5.250;2023-09-07T00:54:13;8.31;;;6.5;;
62457;SDS011;48509;52.122;5.250;2023-09-07T00:55:49;8.4;;;7.2;;
62457;SDS011;48509;52.122;5.250;2023-09-07T00:57:25;6.8;;;6.2;;
62457;SDS011;48509;52.122;5.250;2023-09-07T01:00:38;8.31;;;6.6;;
62457;SDS011;48509;52.122;5.250;2023-09-07T01:02:15;7.7;;;6.9;;
62457;SDS011;48509;52.122;5.250;2023-09-07T01:03:51;10.21;;;7.3;;
62457;SDS011;48509;52.122;5.250;2023-09-07T01:07:17;9.1;;;6.8;;
62457;SDS011;48509;52.122;5.250;2023-09-07T01:08:59;9.6;;;6.7;;
62457;SDS011;48509;52.122;5.250;2023-09-07T01:10:47;9.4;;;6.7;;
62457;SDS011;48509;52.122;5.250;2023-09-07T01:12:23;7.6;;;6.7;;
62457;SDS011;48509;52.122;5.250;2023-09-07T01:13:59;8.81;;;7.4;;
62457;SDS011;48509;52.122;5.250;2023-09-07T01:17:13;13.5;;;6.9;;
62457;SDS011;48509;52.122;5.250;2023-09-07T01:18:50;7.8;;;7.0;;
62457;SDS011;48509;52.122;5.250;2023-09-07T01:20:27;8.2;;;7.4;;
62457;SDS011;48509;52.122;5.250;2023-09-07T01:23:44;8.1;;;7.1;;
62457;SDS011;48509;52.122;5.250;2023-09-07T01:25:22;8.4;;;7.5;;
62457;SDS011;48509;52.122;5.250;2023-09-07T01:26:59;9.71;;;7.2;;
62457;SDS011;48509;52.122;5.250;2023-09-07T01:28:37;6.8;;;6.2;;
62457;SDS011;48509;52.122;5.250;2023-09-07T01:31:49;9.71;;;8.0;;
62457;SDS011;48509;52.122;5.250;2023-09-07T01:33:25;8.9;;;7.1;;
62457;SDS011;48509;52.122;5.250;2023-09-07T01:35:01;8.81;;;7.4;;
62457;SDS011;48509;52.122;5.250;2023-09-07T01:38:19;9.21;;;7.7;;
62457;SDS011;48509;52.122;5.250;2023-09-07T01:39:55;7.9;;;6.7;;
62457;SDS011;48509;52.122;5.250;2023-09-07T01:41:31;9.6;;;7.4;;
62457;SDS011;48509;52.122;5.250;2023-09-07T01:44:43;7.8;;;7.0;;
62457;SDS011;48509;52.122;5.250;2023-09-07T01:46:19;8.5;;;6.9;;
62457;SDS011;48509;52.122;5.250;2023-09-07T01:47:55;14.3;;;7.3;;
62457;SDS011;48509;52.122;5.250;2023-09-07T01:49:31;8.5;;;7.6;;
62457;SDS011;48509;52.122;5.250;2023-09-07T01:52:45;8.2;;;7.4;;
62457;SDS011;48509;52.122;5.250;2023-09-07T01:54:23;7.9;;;7.2;;
62457;SDS011;48509;52.122;5.250;2023-09-07T01:55:59;8.71;;;7.8;;
62457;SDS011;48509;52.122;5.250;2023-09-07T01:59:11;10.4;;;7.4;;
62457;SDS011;48509;52.122;5.250;2023-09-07T02:00:47;9.21;;;8.31;;
62457;SDS011;48509;52.122;5.250;2023-09-07T02:02:23;10.21;;;7.9;;
62457;SDS011;48509;52.122;5.250;2023-09-07T02:05:35;10.1;;;7.8;;
62457;SDS011;48509;52.122;5.250;2023-09-07T02:07:12;9.0;;;7.8;;
62457;SDS011;48509;52.122;5.250;2023-09-07T02:08:49;8.4;;;7.6;;
62457;SDS011;48509;52.122;5.250;2023-09-07T02:10:25;9.9;;;8.2;;
62457;SDS011;48509;52.122;5.250;2023-09-07T02:13:37;10.1;;;7.8;;
62457;SDS011;48509;52.122;5.250;2023-09-07T02:15:16;9.5;;;8.1;;
62457;SDS011;48509;52.122;5.250;2023-09-07T02:16:52;8.81;;;7.9;;
62457;SDS011;48509;52.122;5.250;2023-09-07T02:20:05;9.4;;;8.4;;
62457;SDS011;48509;52.122;5.250;2023-09-07T02:21:41;9.5;;;8.5;;
62457;SDS011;48509;52.122;5.250;2023-09-07T02:23:18;10.5;;;8.5;;
62457;SDS011;48509;52.122;5.250;2023-09-07T02:26:30;10.6;;;8.71;;
62457;SDS011;48509;52.122;5.250;2023-09-07T02:28:06;11.0;;;8.4;;
62457;SDS011;48509;52.122;5.250;2023-09-07T02:29:42;11.1;;;8.31;;
62457;SDS011;48509;52.122;5.250;2023-09-07T02:32:54;9.81;;;8.5;;
62457;SDS011;48509;52.122;5.250;2023-09-07T02:34:31;10.0;;;8.4;;
62457;SDS011;48509;52.122;5.250;2023-09-07T02:36:07;10.7;;;8.5;;
62457;SDS011;48509;52.122;5.250;2023-09-07T02:37:44;9.1;;;8.2;;
62457;SDS011;48509;52.122;5.250;2023-09-07T02:40:57;11.1;;;8.9;;
62457;SDS011;48509;52.122;5.250;2023-09-07T02:42:33;12.1;;;9.4;;
62457;SDS011;48509;52.122;5.250;2023-09-07T02:44:09;13.2;;;8.9;;
62457;SDS011;48509;52.122;5.250;2023-09-07T02:47:24;10.3;;;8.81;;
62457;SDS011;48509;52.122;5.250;2023-09-07T02:49:00;10.0;;;9.0;;
62457;SDS011;48509;52.122;5.250;2023-09-07T02:50:36;14.4;;;8.71;;
62457;SDS011;48509;52.122;5.250;2023-09-07T02:53:48;11.5;;;8.71;;
62457;SDS011;48509;52.122;5.250;2023-09-07T02:55:24;10.6;;;9.1;;
62457;SDS011;48509;52.122;5.250;2023-09-07T02:57:00;12.5;;;8.9;;
62457;SDS011;48509;52.122;5.250;2023-09-07T02:58:36;11.2;;;9.81;;
62457;SDS011;48509;52.122;5.250;2023-09-07T03:01:50;9.9;;;8.81;;
62457;SDS011;48509;52.122;5.250;2023-09-07T03:03:26;20.7;;;8.9;;
62457;SDS011;48509;52.122;5.250;2023-09-07T03:05:02;10.1;;;9.1;;
62457;SDS011;48509;52.122;5.250;2023-09-07T03:08:15;11.5;;;9.81;;
62457;SDS011;48509;52.122;5.250;2023-09-07T03:09:51;11.8;;;9.31;;
62457;SDS011;48509;52.122;5.250;2023-09-07T03:11:27;12.8;;;9.4;;
62457;SDS011;48509;52.122;5.250;2023-09-07T03:14:42;11.9;;;9.71;;
62457;SDS011;48509;52.122;5.250;2023-09-07T03:16:19;11.8;;;9.1;;
62457;SDS011;48509;52.122;5.250;2023-09-07T03:17:55;15.2;;;10.21;;
62457;SDS011;48509;52.122;5.250;2023-09-07T03:19:31;10.7;;;9.6;;
62457;SDS011;48509;52.122;5.250;2023-09-07T03:22:44;10.9;;;9.5;;
62457;SDS011;48509;52.122;5.250;2023-09-07T03:24:21;13.4;;;9.9;;
62457;SDS011;48509;52.122;5.250;2023-09-07T03:25:57;13.5;;;10.21;;
62457;SDS011;48509;52.122;5.250;2023-09-07T03:29:09;12.7;;;10.7;;
62457;SDS011;48509;52.122;5.250;2023-09-07T03:30:44;12.1;;;10.4;;
62457;SDS011;48509;52.122;5.250;2023-09-07T03:32:20;13.4;;;10.21;;
62457;SDS011;48509;52.122;5.250;2023-09-07T03:35:33;11.3;;;10.1;;
62457;SDS011;48509;52.122;5.250;2023-09-07T03:37:09;11.1;;;9.81;;
62457;SDS011;48509;52.122;5.250;2023-09-07T03:38:45;17.7;;;11.0;;
62457;SDS011;48509;52.122;5.250;2023-09-07T03:40:21;11.1;;;10.0;;
62457;SDS011;48509;52.122;5.250;2023-09-07T03:43:34;13.4;;;10.5;;
62457;SDS011;48509;52.122;5.250;2023-09-07T03:45:10;11.8;;;10.6;;
62457;SDS011;48509;52.122;5.250;2023-09-07T03:46:47;12.4;;;11.1;;
62457;SDS011;48509;52.122;5.250;2023-09-07T03:49:59;12.4;;;11.1;;
62457;SDS011;48509;52.122;5.250;2023-09-07T03:51:35;12.6;;;10.6;;
62457;SDS011;48509;52.122;5.250;2023-09-07T03:53:11;12.6;;;10.6;;
62457;SDS011;48509;52.122;5.250;2023-09-07T03:56:23;13.1;;;11.6;;
62457;SDS011;48509;52.122;5.250;2023-09-07T03:57:59;12.9;;;10.7;;
62457;SDS011;48509;52.122;5.250;2023-09-07T03:59:36;11.6;;;10.4;;
62457;SDS011;48509;52.122;5.250;2023-09-07T04:02:48;12.3;;;10.3;;
62457;SDS011;48509;52.122;5.250;2023-09-07T04:04:24;12.7;;;9.6;;
62457;SDS011;48509;52.122;5.250;2023-09-07T04:05:59;12.7;;;9.6;;
62457;SDS011;48509;52.122;5.250;2023-09-07T04:07:35;11.4;;;10.21;;
62457;SDS011;48509;52.122;5.250;2023-09-07T04:10:48;11.8;;;9.71;;
62457;SDS011;48509;52.122;5.250;2023-09-07T04:12:24;12.3;;;10.4;;
62457;SDS011;48509;52.122;5.250;2023-09-07T04:14:00;11.5;;;10.21;;
62457;SDS011;48509;52.122;5.250;2023-09-07T04:17:17;13.9;;;10.4;;
62457;SDS011;48509;52.122;5.250;2023-09-07T04:18:54;10.9;;;9.71;;
62457;SDS011;48509;52.122;5.250;2023-09-07T04:20:30;10.8;;;9.71;;
62457;SDS011;48509;52.122;5.250;2023-09-07T04:23:42;11.9;;;10.4;;
62457;SDS011;48509;52.122;5.250;2023-09-07T04:25:19;11.5;;;10.1;;
62457;SDS011;48509;52.122;5.250;2023-09-07T04:26:58;11.5;;;10.1;;
62457;SDS011;48509;52.122;5.250;2023-09-07T04:28:35;12.5;;;10.8;;
62457;SDS011;48509;52.122;5.250;2023-09-07T04:31:47;12.5;;;10.8;;
62457;SDS011;48509;52.122;5.250;2023-09-07T04:33:22;11.1;;;10.0;;
62457;SDS011;48509;52.122;5.250;2023-09-07T04:34:59;11.1;;;10.0;;
62457;SDS011;48509;52.122;5.250;2023-09-07T04:38:11;14.3;;;10.9;;
62457;SDS011;48509;52.122;5.250;2023-09-07T04:39:50;12.9;;;10.6;;
62457;SDS011;48509;52.122;5.250;2023-09-07T04:41:27;16.0;;;12.1;;
62457;SDS011;48509;52.122;5.250;2023-09-07T04:44:39;13.6;;;11.5;;
62457;SDS011;48509;52.122;5.250;2023-09-07T04:46:16;13.5;;;10.8;;
62457;SDS011;48509;52.122;5.250;2023-09-07T04:47:52;12.0;;;10.7;;
62457;SDS011;48509;52.122;5.250;2023-09-07T04:49:27;14.2;;;10.5;;
62457;SDS011;48509;52.122;5.250;2023-09-07T04:52:41;13.3;;;10.6;;
62457;SDS011;48509;52.122;5.250;2023-09-07T04:54:17;12.3;;;10.3;;
62457;SDS011;48509;52.122;5.250;2023-09-07T04:55:53;11.3;;;10.21;;
62457;SDS011;48509;52.122;5.250;2023-09-07T04:59:06;13.3;;;10.5;;
62457;SDS011;48509;52.122;5.250;2023-09-07T05:00:43;11.8;;;10.1;;
62457;SDS011;48509;52.122;5.250;2023-09-07T05:02:19;12.2;;;10.7;;
62457;SDS011;48509;52.122;5.250;2023-09-07T05:05:31;10.8;;;9.71;;
62457;SDS011;48509;52.122;5.250;2023-09-07T05:07:07;12.4;;;9.9;;
62457;SDS011;48509;52.122;5.250;2023-09-07T05:08:44;12.9;;;10.0;;
62457;SDS011;48509;52.122;5.250;2023-09-07T05:10:20;11.1;;;9.5;;
62457;SDS011;48509;52.122;5.250;2023-09-07T05:13:33;13.7;;;10.5;;
62457;SDS011;48509;52.122;5.250;2023-09-07T05:15:10;11.4;;;10.0;;
62457;SDS011;48509;52.122;5.250;2023-09-07T05:16:46;11.2;;;10.1;;
62457;SDS011;48509;52.122;5.250;2023-09-07T05:19:58;12.4;;;9.81;;
62457;SDS011;48509;52.122;5.250;2023-09-07T05:21:34;13.2;;;10.6;;
62457;SDS011;48509;52.122;5.250;2023-09-07T05:23:11;12.6;;;11.3;;
62457;SDS011;48509;52.122;5.250;2023-09-07T05:26:24;11.6;;;10.4;;
62457;SDS011;48509;52.122;5.250;2023-09-07T05:28:00;14.5;;;11.0;;
62457;SDS011;48509;52.122;5.250;2023-09-07T05:29:35;11.7;;;10.5;;
62457;SDS011;48509;52.122;5.250;2023-09-07T05:32:48;10.9;;;9.81;;
62457;SDS011;48509;52.122;5.250;2023-09-07T05:34:24;12.1;;;10.8;;
62457;SDS011;48509;52.122;5.250;2023-09-07T05:36:00;13.8;;;11.0;;
62457;SDS011;48509;52.122;5.250;2023-09-07T05:37:37;11.2;;;10.1;;
62457;SDS011;48509;52.122;5.250;2023-09-07T05:40:49;11.9;;;9.81;;
62457;SDS011;48509;52.122;5.250;2023-09-07T05:42:26;12.2;;;10.9;;
62457;SDS011;48509;52.122;5.250;2023-09-07T05:44:02;10.4;;;9.31;;
62457;SDS011;48509;52.122;5.250;2023-09-07T05:47:16;10.21;;;8.9;;
62457;SDS011;48509;52.122;5.250;2023-09-07T05:48:54;10.9;;;9.5;;
62457;SDS011;48509;52.122;5.250;2023-09-07T05:50:31;13.3;;;9.1;;
62457;SDS011;48509;52.122;5.250;2023-09-07T05:52:09;11.9;;;10.7;;
62457;SDS011;48509;52.122;5.250;2023-09-07T05:55:22;13.9;;;10.7;;
62457;SDS011;48509;52.122;5.250;2023-09-07T05:56:58;12.0;;;10.4;;
62457;SDS011;48509;52.122;5.250;2023-09-07T05:58:34;13.6;;;11.0;;
62457;SDS011;48509;52.122;5.250;2023-09-07T06:01:48;12.1;;;10.21;;
62457;SDS011;48509;52.122;5.250;2023-09-07T06:03:24;11.6;;;10.0;;
62457;SDS011;48509;52.122;5.250;2023-09-07T06:05:01;12.4;;;10.3;;
62457;SDS011;48509;52.122;5.250;2023-09-07T06:08:14;11.2;;;10.1;;
62457;SDS011;48509;52.122;5.250;2023-09-07T06:09:51;12.7;;;10.3;;
62457;SDS011;48509;52.122;5.250;2023-09-07T06:11:27;11.6;;;10.4;;
62457;SDS011;48509;52.122;5.250;2023-09-07T06:14:39;12.2;;;9.9;;
62457;SDS011;48509;52.122;5.250;2023-09-07T06:16:15;10.5;;;9.4;;
62457;SDS011;48509;52.122;5.250;2023-09-07T06:17:53;11.1;;;9.71;;
62457;SDS011;48509;52.122;5.250;2023-09-07T06:19:28;11.4;;;9.4;;
62457;SDS011;48509;52.122;5.250;2023-09-07T06:22:41;12.7;;;9.5;;
62457;SDS011;48509;52.122;5.250;2023-09-07T06:24:17;13.5;;;9.5;;
62457;SDS011;48509;52.122;5.250;2023-09-07T06:25:52;10.3;;;9.31;;
62457;SDS011;48509;52.122;5.250;2023-09-07T06:29:05;11.0;;;9.31;;
62457;SDS011;48509;52.122;5.250;2023-09-07T06:30:41;12.3;;;8.5;;
62457;SDS011;48509;52.122;5.250;2023-09-07T06:32:18;12.3;;;8.71;;
62457;SDS011;48509;52.122;5.250;2023-09-07T06:35:30;10.5;;;8.6;;
62457;SDS011;48509;52.122;5.250;2023-09-07T06:37:06;15.3;;;9.1;;
62457;SDS011;48509;52.122;5.250;2023-09-07T06:38:42;13.2;;;8.9;;
62457;SDS011;48509;52.122;5.250;2023-09-07T06:40:18;9.21;;;8.2;;
62457;SDS011;48509;52.122;5.250;2023-09-07T06:43:30;11.1;;;8.71;;
62457;SDS011;48509;52.122;5.250;2023-09-07T06:45:07;9.6;;;8.6;;
62457;SDS011;48509;52.122;5.250;2023-09-07T06:46:44;9.0;;;7.7;;
62457;SDS011;48509;52.122;5.250;2023-09-07T06:49:56;10.1;;;7.6;;
62457;SDS011;48509;52.122;5.250;2023-09-07T06:51:32;9.31;;;8.0;;
62457;SDS011;48509;52.122;5.250;2023-09-07T06:53:08;9.9;;;7.6;;
62457;SDS011;48509;52.122;5.250;2023-09-07T06:56:20;10.0;;;7.8;;
62457;SDS011;48509;52.122;5.250;2023-09-07T06:57:56;8.9;;;7.8;;
62457;SDS011;48509;52.122;5.250;2023-09-07T06:59:31;9.6;;;8.2;;
62457;SDS011;48509;52.122;5.250;2023-09-07T07:02:44;9.5;;;8.1;;
62457;SDS011;48509;52.122;5.250;2023-09-07T07:04:20;8.5;;;7.6;;
62457;SDS011;48509;52.122;5.250;2023-09-07T07:05:56;9.5;;;6.9;;
62457;SDS011;48509;52.122;5.250;2023-09-07T07:07:32;9.9;;;7.4;;
62457;SDS011;48509;52.122;5.250;2023-09-07T07:10:46;8.81;;;7.3;;
62457;SDS011;48509;52.122;5.250;2023-09-07T07:12:22;8.81;;;7.1;;
62457;SDS011;48509;52.122;5.250;2023-09-07T07:13:58;8.2;;;7.4;;
62457;SDS011;48509;52.122;5.250;2023-09-07T07:17:10;7.8;;;7.0;;
62457;SDS011;48509;52.122;5.250;2023-09-07T07:18:46;11.2;;;7.0;;
62457;SDS011;48509;52.122;5.250;2023-09-07T07:20:23;7.9;;;6.8;;
62457;SDS011;48509;52.122;5.250;2023-09-07T07:23:35;8.6;;;6.8;;
62457;SDS011;48509;52.122;5.250;2023-09-07T07:25:11;10.6;;;6.7;;
62457;SDS011;48509;52.122;5.250;2023-09-07T07:26:48;7.3;;;6.6;;
62457;SDS011;48509;52.122;5.250;2023-09-07T07:28:24;9.1;;;7.1;;
62457;SDS011;48509;52.122;5.250;2023-09-07T07:31:37;10.0;;;6.6;;
62457;SDS011;48509;52.122;5.250;2023-09-07T07:33:14;9.1;;;6.5;;
62457;SDS011;48509;52.122;5.250;2023-09-07T07:34:49;7.4;;;6.7;;
62457;SDS011;48509;52.122;5.250;2023-09-07T07:38:01;9.71;;;7.2;;
62457;SDS011;48509;52.122;5.250;2023-09-07T07:39:38;11.0;;;7.4;;
62457;SDS011;48509;52.122;5.250;2023-09-07T07:41:14;10.3;;;6.6;;
62457;SDS011;48509;52.122;5.250;2023-09-07T07:44:27;8.71;;;6.9;;
62457;SDS011;48509;52.122;5.250;2023-09-07T07:46:03;7.9;;;6.7;;
62457;SDS011;48509;52.122;5.250;2023-09-07T07:47:40;6.7;;;6.0;;
62457;SDS011;48509;52.122;5.250;2023-09-07T07:49:19;8.71;;;6.3;;
62457;SDS011;48509;52.122;5.250;2023-09-07T07:52:32;6.5;;;5.5;;
62457;SDS011;48509;52.122;5.250;2023-09-07T07:54:07;7.8;;;5.9;;
62457;SDS011;48509;52.122;5.250;2023-09-07T07:55:44;8.81;;;5.6;;
62457;SDS011;48509;52.122;5.250;2023-09-07T07:58:56;8.5;;;6.1;;
62457;SDS011;48509;52.122;5.250;2023-09-07T08:00:32;6.0;;;5.4;;
62457;SDS011;48509;52.122;5.250;2023-09-07T08:02:08;6.6;;;5.3;;
62457;SDS011;48509;52.122;5.250;2023-09-07T08:05:21;8.1;;;5.7;;
62457;SDS011;48509;52.122;5.250;2023-09-07T08:06:57;7.7;;;5.5;;
62457;SDS011;48509;52.122;5.250;2023-09-07T08:08:33;6.2;;;5.6;;
62457;SDS011;48509;52.122;5.250;2023-09-07T08:11:45;7.3;;;6.1;;
62457;SDS011;48509;52.122;5.250;2023-09-07T08:13:21;6.7;;;5.3;;
62457;SDS011;48509;52.122;5.250;2023-09-07T08:14:57;8.31;;;5.4;;
62457;SDS011;48509;52.122;5.250;2023-09-07T08:16:34;7.1;;;5.5;;
62457;SDS011;48509;52.122;5.250;2023-09-07T08:19:45;8.71;;;4.8;;
62457;SDS011;48509;52.122;5.250;2023-09-07T08:21:22;6.8;;;5.5;;
62457;SDS011;48509;52.122;5.250;2023-09-07T08:22:58;9.6;;;5.9;;
62457;SDS011;48509;52.122;5.250;2023-09-07T08:26:10;9.81;;;5.4;;
62457;SDS011;48509;52.122;5.250;2023-09-07T08:27:47;6.5;;;5.11;;
62457;SDS011;48509;52.122;5.250;2023-09-07T08:29:23;5.6;;;4.61;;
62457;SDS011;48509;52.122;5.250;2023-09-07T08:32:35;8.0;;;5.2;;
62457;SDS011;48509;52.122;5.250;2023-09-07T08:34:11;7.3;;;4.91;;
62457;SDS011;48509;52.122;5.250;2023-09-07T08:35:51;5.11;;;4.5;;
62457;SDS011;48509;52.122;5.250;2023-09-07T08:37:27;10.9;;;5.0;;
62457;SDS011;48509;52.122;5.250;2023-09-07T08:40:41;5.4;;;4.61;;
62457;SDS011;48509;52.122;5.250;2023-09-07T08:42:17;8.0;;;5.2;;
62457;SDS011;48509;52.122;5.250;2023-09-07T08:43:54;6.2;;;4.7;;
62457;SDS011;48509;52.122;5.250;2023-09-07T08:47:16;8.0;;;5.11;;
62457;SDS011;48509;52.122;5.250;2023-09-07T08:48:54;4.41;;;4.0;;
62457;SDS011;48509;52.122;5.250;2023-09-07T08:50:32;6.7;;;4.5;;
62457;SDS011;48509;52.122;5.250;2023-09-07T08:52:08;4.7;;;4.2;;
62457;SDS011;48509;52.122;5.250;2023-09-07T08:55:22;4.61;;;4.2;;
62457;SDS011;48509;52.122;5.250;2023-09-07T08:57:02;4.8;;;4.3;;
62457;SDS011;48509;52.122;5.250;2023-09-07T08:58:38;5.7;;;4.2;;
62457;SDS011;48509;52.122;5.250;2023-09-07T09:01:50;5.7;;;4.0;;
62457;SDS011;48509;52.122;5.250;2023-09-07T09:03:32;4.8;;;4.1;;
62457;SDS011;48509;52.122;5.250;2023-09-07T09:05:08;5.4;;;4.3;;
62457;SDS011;48509;52.122;5.250;2023-09-07T09:06:45;5.8;;;4.3;;
62457;SDS011;48509;52.122;5.250;2023-09-07T09:10:05;5.7;;;4.5;;
62457;SDS011;48509;52.122;5.250;2023-09-07T09:11:41;9.31;;;4.2;;
62457;SDS011;48509;52.122;5.250;2023-09-07T09:13:26;5.0;;;4.3;;
62457;SDS011;48509;52.122;5.250;2023-09-07T09:16:40;6.2;;;4.61;;
62457;SDS011;48509;52.122;5.250;2023-09-07T09:18:24;7.0;;;4.2;;
62457;SDS011;48509;52.122;5.250;2023-09-07T09:20:00;5.7;;;3.8;;
62457;SDS011;48509;52.122;5.250;2023-09-07T09:21:36;4.5;;;4.1;;
62457;SDS011;48509;52.122;5.250;2023-09-07T09:24:48;6.0;;;3.7;;
62457;SDS011;48509;52.122;5.250;2023-09-07T09:26:24;7.4;;;4.5;;
62457;SDS011;48509;52.122;5.250;2023-09-07T09:28:01;6.3;;;4.3;;
62457;SDS011;48509;52.122;5.250;2023-09-07T09:31:14;4.0;;;3.6;;
62457;SDS011;48509;52.122;5.250;2023-09-07T09:32:50;4.7;;;3.7;;
62457;SDS011;48509;52.122;5.250;2023-09-07T09:34:32;8.71;;;4.2;;
62457;SDS011;48509;52.122;5.250;2023-09-07T09:36:09;5.11;;;4.0;;
62457;SDS011;48509;52.122;5.250;2023-09-07T09:39:22;5.8;;;3.8;;
62457;SDS011;48509;52.122;5.250;2023-09-07T09:40:59;5.8;;;3.7;;
62457;SDS011;48509;52.122;5.250;2023-09-07T09:42:35;5.5;;;3.7;;
62457;SDS011;48509;52.122;5.250;2023-09-07T09:45:49;5.9;;;4.0;;
62457;SDS011;48509;52.122;5.250;2023-09-07T09:47:27;5.0;;;3.4;;
62457;SDS011;48509;52.122;5.250;2023-09-07T09:49:07;8.71;;;3.9;;
62457;SDS011;48509;52.122;5.250;2023-09-07T09:50:43;5.0;;;3.8;;
62457;SDS011;48509;52.122;5.250;2023-09-07T09:54:00;4.3;;;3.9;;
62457;SDS011;48509;52.122;5.250;2023-09-07T09:55:37;5.11;;;4.0;;
62457;SDS011;48509;52.122;5.250;2023-09-07T09:57:13;4.1;;;3.7;;
62457;SDS011;48509;52.122;5.250;2023-09-07T10:00:25;3.8;;;3.5;;
62457;SDS011;48509;52.122;5.250;2023-09-07T10:02:02;3.8;;;3.5;;
62457;SDS011;48509;52.122;5.250;2023-09-07T10:03:41;3.4;;;3.1;;
62457;SDS011;48509;52.122;5.250;2023-09-07T10:05:21;4.7;;;3.5;;
62457;SDS011;48509;52.122;5.250;2023-09-07T10:08:36;3.6;;;3.0;;
62457;SDS011;48509;52.122;5.250;2023-09-07T10:10:12;4.8;;;3.6;;
62457;SDS011;48509;52.122;5.250;2023-09-07T10:11:51;6.6;;;3.4;;
62457;SDS011;48509;52.122;5.250;2023-09-07T10:15:06;4.8;;;3.5;;
62457;SDS011;48509;52.122;5.250;2023-09-07T10:16:56;4.61;;;3.0;;
62457;SDS011;48509;52.122;5.250;2023-09-07T10:18:33;4.7;;;3.4;;
62457;SDS011;48509;52.122;5.250;2023-09-07T10:23:34;3.7;;;3.4;;
62457;SDS011;48509;52.122;5.250;2023-09-07T10:25:20;4.0;;;3.1;;
62457;SDS011;48509;52.122;5.250;2023-09-07T10:26:59;3.6;;;3.3;;
62457;SDS011;48509;52.122;5.250;2023-09-07T10:28:36;4.5;;;3.3;;
62457;SDS011;48509;52.122;5.250;2023-09-07T10:31:51;3.8;;;3.4;;
62457;SDS011;48509;52.122;5.250;2023-09-07T10:33:27;4.8;;;3.4;;
62457;SDS011;48509;52.122;5.250;2023-09-07T10:35:05;4.61;;;3.5;;
62457;SDS011;48509;52.122;5.250;2023-09-07T10:36:48;3.5;;;3.0;;
62457;SDS011;48509;52.122;5.250;2023-09-07T10:40:09;4.3;;;3.5;;
62457;SDS011;48509;52.122;5.250;2023-09-07T10:41:46;3.7;;;3.3;;
62457;SDS011;48509;52.122;5.250;2023-09-07T10:43:22;3.8;;;3.4;;
62457;SDS011;48509;52.122;5.250;2023-09-07T10:46:44;4.1;;;3.2;;
62457;SDS011;48509;52.122;5.250;2023-09-07T10:48:20;5.11;;;3.6;;
62457;SDS011;48509;52.122;5.250;2023-09-07T10:49:56;6.2;;;3.7;;
62457;SDS011;48509;52.122;5.250;2023-09-07T10:51:33;4.61;;;3.3;;
62457;SDS011;48509;52.122;5.250;2023-09-07T10:55:00;5.4;;;3.6;;
62457;SDS011;48509;52.122;5.250;2023-09-07T10:56:37;5.4;;;3.6;;
62457;SDS011;48509;52.122;5.250;2023-09-07T10:58:13;6.1;;;3.6;;
62457;SDS011;48509;52.122;5.250;2023-09-07T11:00:01;4.5;;;3.4;;
62457;SDS011;48509;52.122;5.250;2023-09-07T11:03:14;7.2;;;3.4;;
62457;SDS011;48509;52.122;5.250;2023-09-07T11:04:50;7.1;;;3.7;;
62457;SDS011;48509;52.122;5.250;2023-09-07T11:06:27;4.41;;;3.2;;
62457;SDS011;48509;52.122;5.250;2023-09-07T11:08:04;4.61;;;3.5;;
62457;SDS011;48509;52.122;5.250;2023-09-07T11:11:19;6.0;;;3.3;;
62457;SDS011;48509;52.122;5.250;2023-09-07T11:12:55;6.4;;;3.9;;
62457;SDS011;48509;52.122;5.250;2023-09-07T11:14:31;4.7;;;3.7;;
62457;SDS011;48509;52.122;5.250;2023-09-07T11:17:45;4.5;;;3.3;;
62457;SDS011;48509;52.122;5.250;2023-09-07T11:19:21;7.1;;;3.2;;
62457;SDS011;48509;52.122;5.250;2023-09-07T11:20:57;4.2;;;3.6;;
62457;SDS011;48509;52.122;5.250;2023-09-07T11:24:10;5.7;;;3.6;;
62457;SDS011;48509;52.122;5.250;2023-09-07T11:25:46;4.3;;;3.5;;
62457;SDS011;48509;52.122;5.250;2023-09-07T11:27:24;4.1;;;3.4;;
62457;SDS011;48509;52.122;5.250;2023-09-07T11:29:00;4.3;;;3.5;;
62457;SDS011;48509;52.122;5.250;2023-09-07T11:32:13;3.8;;;3.4;;
62457;SDS011;48509;52.122;5.250;2023-09-07T11:33:49;4.5;;;3.3;;
62457;SDS011;48509;52.122;5.250;2023-09-07T11:35:26;4.7;;;3.4;;
62457;SDS011;48509;52.122;5.250;2023-09-07T11:38:42;4.8;;;3.2;;
62457;SDS011;48509;52.122;5.250;2023-09-07T11:40:20;4.61;;;3.2;;
62457;SDS011;48509;52.122;5.250;2023-09-07T11:41:56;3.4;;;3.1;;
62457;SDS011;48509;52.122;5.250;2023-09-07T11:45:08;4.7;;;3.4;;
62457;SDS011;48509;52.122;5.250;2023-09-07T11:46:45;4.2;;;3.3;;
62457;SDS011;48509;52.122;5.250;2023-09-07T11:48:22;4.61;;;3.3;;
62457;SDS011;48509;52.122;5.250;2023-09-07T11:49:58;3.3;;;3.0;;
62457;SDS011;48509;52.122;5.250;2023-09-07T11:53:10;5.9;;;3.3;;
62457;SDS011;48509;52.122;5.250;2023-09-07T11:54:47;7.0;;;3.6;;
62457;SDS011;48509;52.122;5.250;2023-09-07T11:56:23;3.7;;;3.1;;
62457;SDS011;48509;52.122;5.250;2023-09-07T11:59:36;6.0;;;3.1;;
62457;SDS011;48509;52.122;5.250;2023-09-07T12:01:12;6.4;;;3.4;;
62457;SDS011;48509;52.122;5.250;2023-09-07T12:02:49;5.2;;;3.5;;
62457;SDS011;48509;52.122;5.250;2023-09-07T12:06:02;5.7;;;3.7;;
62457;SDS011;48509;52.122;5.250;2023-09-07T12:07:38;4.1;;;3.4;;
62457;SDS011;48509;52.122;5.250;2023-09-07T12:09:14;6.7;;;3.4;;
62457;SDS011;48509;52.122;5.250;2023-09-07T12:10:50;12.5;;;3.8;;
62457;SDS011;48509;52.122;5.250;2023-09-07T12:14:03;3.9;;;3.4;;
62457;SDS011;48509;52.122;5.250;2023-09-07T12:15:39;5.5;;;3.4;;
62457;SDS011;48509;52.122;5.250;2023-09-07T12:17:15;4.91;;;3.5;;
62457;SDS011;48509;52.122;5.250;2023-09-07T12:20:28;5.4;;;3.2;;
62457;SDS011;48509;52.122;5.250;2023-09-07T12:22:04;5.2;;;3.2;;
62457;SDS011;48509;52.122;5.250;2023-09-07T12:23:40;10.3;;;3.5;;
62457;SDS011;48509;52.122;5.250;2023-09-07T12:26:52;4.2;;;3.6;;
62457;SDS011;48509;52.122;5.250;2023-09-07T12:28:29;4.5;;;3.3;;
62457;SDS011;48509;52.122;5.250;2023-09-07T12:30:05;5.9;;;2.9;;
62457;SDS011;48509;52.122;5.250;2023-09-07T12:31:42;5.4;;;3.2;;
62457;SDS011;48509;52.122;5.250;2023-09-07T12:34:54;3.7;;;3.3;;
62457;SDS011;48509;52.122;5.250;2023-09-07T12:36:30;6.8;;;3.5;;
62457;SDS011;48509;52.122;5.250;2023-09-07T12:38:06;5.9;;;3.2;;
62457;SDS011;48509;52.122;5.250;2023-09-07T12:41:19;4.5;;;3.2;;
62457;SDS011;48509;52.122;5.250;2023-09-07T12:42:54;4.7;;;3.3;;
62457;SDS011;48509;52.122;5.250;2023-09-07T12:44:31;7.7;;;3.6;;
62457;SDS011;48509;52.122;5.250;2023-09-07T12:47:43;4.7;;;3.3;;
62457;SDS011;48509;52.122;5.250;2023-09-07T12:49:19;4.8;;;3.2;;
62457;SDS011;48509;52.122;5.250;2023-09-07T12:50:55;5.3;;;3.4;;
62457;SDS011;48509;52.122;5.250;2023-09-07T12:54:09;4.41;;;3.5;;